sensor_id;sensor_type;location;lat;lon;timestamp;P1;durP1;ratioP1;P2;durP2;ratioP2
69034;SDS011;56091;55.756;37.412;2023-06-01T00:00:25;10.32;;;3.97;;
69034;SDS011;56091;55.756;37.412;2023-06-01T00:05:25;11.50;;;3.67;;
69034;SDS011;56091;55.756;37.412;2023-06-01T00:10:26;10.32;;;4.18;;
69034;SDS011;56091;55.756;37.412;2023-06-01T00:15:27;9.73;;;3.87;;
69034;SDS011;56091;55.756;37.412;2023-06-01T00:20:28;11.25;;;3.95;;
69034;SDS011;56091;55.756;37.412;2023-06-01T00:25:29;13.57;;;4.40;;
69034;SDS011;56091;55.756;37.412;2023-06-01T00:30:30;10.13;;;3.90;;
69034;SDS011;56091;55.756;37.412;2023-06-01T00:35:31;11.97;;;4.03;;
69034;SDS011;56091;55.756;37.412;2023-06-01T00:40:31;15.30;;;4.00;;
69034;SDS011;56091;55.756;37.412;2023-06-01T00:45:33;8.45;;;3.67;;
69034;SDS011;56091;55.756;37.412;2023-06-01T00:50:34;11.03;;;3.80;;
69034;SDS011;56091;55.756;37.412;2023-06-01T00:55:35;9.73;;;3.70;;
69034;SDS011;56091;55.756;37.412;2023-06-01T01:00:36;10.67;;;3.40;;
69034;SDS011;56091;55.756;37.412;2023-06-01T01:05:37;12.00;;;4.13;;
69034;SDS011;56091;55.756;37.412;2023-06-01T01:10:59;11.37;;;3.70;;
69034;SDS011;56091;55.756;37.412;2023-06-01T01:21:31;10.53;;;3.37;;
69034;SDS011;56091;55.756;37.412;2023-06-01T01:31:53;8.90;;;3.47;;
69034;SDS011;56091;55.756;37.412;2023-06-01T01:36:56;7.85;;;3.40;;
69034;SDS011;56091;55.756;37.412;2023-06-01T01:41:57;9.70;;;3.43;;
69034;SDS011;56091;55.756;37.412;2023-06-01T01:47:06;10.88;;;3.63;;
69034;SDS011;56091;55.756;37.412;2023-06-01T01:52:23;9.87;;;3.70;;
69034;SDS011;56091;55.756;37.412;2023-06-01T01:57:29;8.63;;;3.47;;
69034;SDS011;56091;55.756;37.412;2023-06-01T02:02:32;10.10;;;3.60;;
69034;SDS011;56091;55.756;37.412;2023-06-01T02:07:33;8.27;;;3.20;;
69034;SDS011;56091;55.756;37.412;2023-06-01T02:12:37;10.47;;;3.37;;
69034;SDS011;56091;55.756;37.412;2023-06-01T02:17:38;9.02;;;3.17;;
69034;SDS011;56091;55.756;37.412;2023-06-01T02:22:41;12.53;;;3.40;;
69034;SDS011;56091;55.756;37.412;2023-06-01T02:27:41;7.35;;;2.63;;
69034;SDS011;56091;55.756;37.412;2023-06-01T02:32:42;13.93;;;2.90;;
69034;SDS011;56091;55.756;37.412;2023-06-01T02:37:47;8.98;;;3.30;;
69034;SDS011;56091;55.756;37.412;2023-06-01T02:42:48;8.10;;;3.20;;
69034;SDS011;56091;55.756;37.412;2023-06-01T02:47:48;10.25;;;2.92;;
69034;SDS011;56091;55.756;37.412;2023-06-01T02:52:50;8.63;;;3.10;;
69034;SDS011;56091;55.756;37.412;2023-06-01T02:57:51;8.07;;;3.05;;
69034;SDS011;56091;55.756;37.412;2023-06-01T03:02:52;9.53;;;3.37;;
69034;SDS011;56091;55.756;37.412;2023-06-01T03:07:54;10.65;;;3.22;;
69034;SDS011;56091;55.756;37.412;2023-06-01T03:12:59;10.27;;;3.27;;
69034;SDS011;56091;55.756;37.412;2023-06-01T03:18:01;8.00;;;3.47;;
69034;SDS011;56091;55.756;37.412;2023-06-01T03:23:01;8.83;;;3.47;;
69034;SDS011;56091;55.756;37.412;2023-06-01T03:28:05;13.10;;;3.72;;
69034;SDS011;56091;55.756;37.412;2023-06-01T03:33:06;9.03;;;3.10;;
69034;SDS011;56091;55.756;37.412;2023-06-01T03:38:06;8.57;;;3.33;;
69034;SDS011;56091;55.756;37.412;2023-06-01T03:43:07;10.77;;;3.40;;
69034;SDS011;56091;55.756;37.412;2023-06-01T03:48:10;8.30;;;3.20;;
69034;SDS011;56091;55.756;37.412;2023-06-01T03:53:11;8.25;;;3.55;;
69034;SDS011;56091;55.756;37.412;2023-06-01T03:58:15;11.73;;;3.10;;
69034;SDS011;56091;55.756;37.412;2023-06-01T04:03:15;11.13;;;3.70;;
69034;SDS011;56091;55.756;37.412;2023-06-01T04:08:22;8.93;;;3.07;;
69034;SDS011;56091;55.756;37.412;2023-06-01T04:13:23;7.30;;;3.28;;
69034;SDS011;56091;55.756;37.412;2023-06-01T04:18:26;8.57;;;3.10;;
69034;SDS011;56091;55.756;37.412;2023-06-01T04:23:29;7.18;;;3.00;;
69034;SDS011;56091;55.756;37.412;2023-06-01T04:28:31;12.23;;;3.40;;
69034;SDS011;56091;55.756;37.412;2023-06-01T04:33:33;7.57;;;3.20;;
69034;SDS011;56091;55.756;37.412;2023-06-01T04:38:35;11.93;;;3.70;;
69034;SDS011;56091;55.756;37.412;2023-06-01T04:43:36;8.57;;;3.40;;
69034;SDS011;56091;55.756;37.412;2023-06-01T04:48:40;8.33;;;3.47;;
69034;SDS011;56091;55.756;37.412;2023-06-01T04:53:42;13.27;;;3.88;;
69034;SDS011;56091;55.756;37.412;2023-06-01T04:58:43;11.13;;;3.50;;
69034;SDS011;56091;55.756;37.412;2023-06-01T05:03:45;11.98;;;3.72;;
69034;SDS011;56091;55.756;37.412;2023-06-01T05:08:47;11.93;;;3.70;;
69034;SDS011;56091;55.756;37.412;2023-06-01T05:13:48;11.68;;;3.75;;
69034;SDS011;56091;55.756;37.412;2023-06-01T05:18:54;10.70;;;3.30;;
69034;SDS011;56091;55.756;37.412;2023-06-01T05:23:56;12.70;;;3.50;;
69034;SDS011;56091;55.756;37.412;2023-06-01T05:29:01;12.90;;;4.03;;
69034;SDS011;56091;55.756;37.412;2023-06-01T05:34:05;12.18;;;4.50;;
69034;SDS011;56091;55.756;37.412;2023-06-01T05:39:06;13.67;;;5.07;;
69034;SDS011;56091;55.756;37.412;2023-06-01T05:44:08;13.73;;;4.93;;
69034;SDS011;56091;55.756;37.412;2023-06-01T05:49:10;10.77;;;4.50;;
69034;SDS011;56091;55.756;37.412;2023-06-01T05:54:11;17.17;;;3.78;;
69034;SDS011;56091;55.756;37.412;2023-06-01T05:59:12;12.10;;;3.60;;
69034;SDS011;56091;55.756;37.412;2023-06-01T06:04:13;14.15;;;3.20;;
69034;SDS011;56091;55.756;37.412;2023-06-01T06:09:15;7.93;;;3.10;;
69034;SDS011;56091;55.756;37.412;2023-06-01T06:14:16;13.30;;;3.10;;
69034;SDS011;56091;55.756;37.412;2023-06-01T06:19:18;8.87;;;2.90;;
69034;SDS011;56091;55.756;37.412;2023-06-01T06:24:19;7.28;;;3.28;;
69034;SDS011;56091;55.756;37.412;2023-06-01T06:29:20;9.70;;;3.17;;
69034;SDS011;56091;55.756;37.412;2023-06-01T06:34:21;6.70;;;2.60;;
69034;SDS011;56091;55.756;37.412;2023-06-01T06:39:22;9.23;;;2.90;;
69034;SDS011;56091;55.756;37.412;2023-06-01T06:44:22;13.10;;;3.10;;
69034;SDS011;56091;55.756;37.412;2023-06-01T06:49:23;7.00;;;2.40;;
69034;SDS011;56091;55.756;37.412;2023-06-01T06:54:33;7.30;;;2.40;;
69034;SDS011;56091;55.756;37.412;2023-06-01T06:59:34;7.32;;;2.42;;
69034;SDS011;56091;55.756;37.412;2023-06-01T07:04:36;18.37;;;2.40;;
69034;SDS011;56091;55.756;37.412;2023-06-01T07:09:38;9.35;;;2.67;;
69034;SDS011;56091;55.756;37.412;2023-06-01T07:14:39;9.73;;;2.33;;
69034;SDS011;56091;55.756;37.412;2023-06-01T07:19:39;7.47;;;1.97;;
69034;SDS011;56091;55.756;37.412;2023-06-01T07:25:19;6.45;;;1.83;;
69034;SDS011;56091;55.756;37.412;2023-06-01T07:30:20;10.83;;;2.40;;
69034;SDS011;56091;55.756;37.412;2023-06-01T07:35:22;6.45;;;2.40;;
69034;SDS011;56091;55.756;37.412;2023-06-01T07:40:26;9.97;;;2.27;;
69034;SDS011;56091;55.756;37.412;2023-06-01T07:45:28;9.75;;;2.45;;
69034;SDS011;56091;55.756;37.412;2023-06-01T07:50:29;6.80;;;2.03;;
69034;SDS011;56091;55.756;37.412;2023-06-01T07:55:31;6.05;;;2.00;;
69034;SDS011;56091;55.756;37.412;2023-06-01T08:00:32;8.67;;;2.57;;
69034;SDS011;56091;55.756;37.412;2023-06-01T08:05:34;5.50;;;2.20;;
69034;SDS011;56091;55.756;37.412;2023-06-01T08:10:36;6.07;;;2.60;;
69034;SDS011;56091;55.756;37.412;2023-06-01T08:15:39;6.35;;;2.00;;
69034;SDS011;56091;55.756;37.412;2023-06-01T08:20:42;9.70;;;2.17;;
69034;SDS011;56091;55.756;37.412;2023-06-01T08:25:44;9.13;;;2.50;;
69034;SDS011;56091;55.756;37.412;2023-06-01T08:30:45;5.97;;;2.03;;
69034;SDS011;56091;55.756;37.412;2023-06-01T08:35:46;5.47;;;1.92;;
69034;SDS011;56091;55.756;37.412;2023-06-01T08:40:47;7.67;;;2.23;;
69034;SDS011;56091;55.756;37.412;2023-06-01T08:45:48;10.18;;;2.40;;
69034;SDS011;56091;55.756;37.412;2023-06-01T08:50:53;9.60;;;2.20;;
69034;SDS011;56091;55.756;37.412;2023-06-01T08:55:56;5.63;;;1.90;;
69034;SDS011;56091;55.756;37.412;2023-06-01T09:00:57;7.63;;;2.40;;
69034;SDS011;56091;55.756;37.412;2023-06-01T09:05:59;10.05;;;2.35;;
69034;SDS011;56091;55.756;37.412;2023-06-01T09:11:00;6.37;;;2.03;;
69034;SDS011;56091;55.756;37.412;2023-06-01T09:16:01;5.28;;;2.20;;
69034;SDS011;56091;55.756;37.412;2023-06-01T09:26:17;6.20;;;1.70;;
69034;SDS011;56091;55.756;37.412;2023-06-01T09:36:39;8.68;;;1.88;;
69034;SDS011;56091;55.756;37.412;2023-06-01T09:41:47;5.90;;;2.20;;
69034;SDS011;56091;55.756;37.412;2023-06-01T09:46:53;5.97;;;1.77;;
69034;SDS011;56091;55.756;37.412;2023-06-01T09:57:05;6.97;;;1.75;;
69034;SDS011;56091;55.756;37.412;2023-06-01T10:02:10;10.57;;;1.90;;
69034;SDS011;56091;55.756;37.412;2023-06-01T10:07:13;5.28;;;2.10;;
69034;SDS011;56091;55.756;37.412;2023-06-01T10:12:15;5.97;;;1.80;;
69034;SDS011;56091;55.756;37.412;2023-06-01T10:17:16;5.00;;;1.83;;
69034;SDS011;56091;55.756;37.412;2023-06-01T10:22:19;5.03;;;1.73;;
69034;SDS011;56091;55.756;37.412;2023-06-01T10:37:36;5.23;;;1.90;;
69034;SDS011;56091;55.756;37.412;2023-06-01T10:42:38;11.00;;;2.03;;
69034;SDS011;56091;55.756;37.412;2023-06-01T10:52:40;8.40;;;2.10;;
69034;SDS011;56091;55.756;37.412;2023-06-01T10:57:42;10.90;;;2.13;;
69034;SDS011;56091;55.756;37.412;2023-06-01T11:02:48;4.75;;;1.83;;
69034;SDS011;56091;55.756;37.412;2023-06-01T11:07:50;5.30;;;1.93;;
69034;SDS011;56091;55.756;37.412;2023-06-01T11:13:10;5.03;;;2.00;;
69034;SDS011;56091;55.756;37.412;2023-06-01T11:23:59;8.33;;;2.00;;
69034;SDS011;56091;55.756;37.412;2023-06-01T11:29:12;5.40;;;2.17;;
69034;SDS011;56091;55.756;37.412;2023-06-01T11:39:41;9.70;;;1.95;;
69034;SDS011;56091;55.756;37.412;2023-06-01T11:44:45;10.60;;;2.77;;
69034;SDS011;56091;55.756;37.412;2023-06-01T11:49:56;7.15;;;2.47;;
69034;SDS011;56091;55.756;37.412;2023-06-01T11:55:03;7.27;;;1.80;;
69034;SDS011;56091;55.756;37.412;2023-06-01T12:00:05;6.78;;;1.95;;
69034;SDS011;56091;55.756;37.412;2023-06-01T12:05:12;9.27;;;2.10;;
69034;SDS011;56091;55.756;37.412;2023-06-01T12:10:17;7.88;;;2.28;;
69034;SDS011;56091;55.756;37.412;2023-06-01T12:15:20;8.93;;;2.70;;
69034;SDS011;56091;55.756;37.412;2023-06-01T12:20:37;8.93;;;2.85;;
69034;SDS011;56091;55.756;37.412;2023-06-01T12:25:48;9.83;;;3.20;;
69034;SDS011;56091;55.756;37.412;2023-06-01T12:31:11;10.70;;;2.28;;
69034;SDS011;56091;55.756;37.412;2023-06-01T12:36:30;6.03;;;2.50;;
69034;SDS011;56091;55.756;37.412;2023-06-01T12:41:35;7.10;;;2.13;;
69034;SDS011;56091;55.756;37.412;2023-06-01T12:46:37;11.00;;;3.30;;
69034;SDS011;56091;55.756;37.412;2023-06-01T12:51:38;7.78;;;3.50;;
69034;SDS011;56091;55.756;37.412;2023-06-01T12:56:39;9.53;;;2.53;;
69034;SDS011;56091;55.756;37.412;2023-06-01T13:01:40;6.47;;;2.30;;
69034;SDS011;56091;55.756;37.412;2023-06-01T13:06:41;7.90;;;2.30;;
69034;SDS011;56091;55.756;37.412;2023-06-01T13:11:43;7.10;;;3.65;;
69034;SDS011;56091;55.756;37.412;2023-06-01T13:16:47;8.17;;;2.73;;
69034;SDS011;56091;55.756;37.412;2023-06-01T13:21:51;8.70;;;3.75;;
69034;SDS011;56091;55.756;37.412;2023-06-01T13:26:52;7.73;;;1.90;;
69034;SDS011;56091;55.756;37.412;2023-06-01T13:31:53;9.20;;;2.40;;
69034;SDS011;56091;55.756;37.412;2023-06-01T13:36:54;8.03;;;2.53;;
69034;SDS011;56091;55.756;37.412;2023-06-01T13:41:56;8.88;;;4.13;;
69034;SDS011;56091;55.756;37.412;2023-06-01T13:46:57;8.27;;;2.40;;
69034;SDS011;56091;55.756;37.412;2023-06-01T13:51:58;7.87;;;2.63;;
69034;SDS011;56091;55.756;37.412;2023-06-01T13:56:59;7.00;;;2.10;;
69034;SDS011;56091;55.756;37.412;2023-06-01T14:02:04;8.13;;;3.60;;
69034;SDS011;56091;55.756;37.412;2023-06-01T14:07:05;8.38;;;3.70;;
69034;SDS011;56091;55.756;37.412;2023-06-01T14:12:06;6.27;;;2.40;;
69034;SDS011;56091;55.756;37.412;2023-06-01T14:17:07;8.32;;;4.40;;
69034;SDS011;56091;55.756;37.412;2023-06-01T14:22:08;9.20;;;4.30;;
69034;SDS011;56091;55.756;37.412;2023-06-01T14:27:09;8.30;;;2.70;;
69034;SDS011;56091;55.756;37.412;2023-06-01T14:32:12;8.70;;;2.60;;
69034;SDS011;56091;55.756;37.412;2023-06-01T14:37:13;7.28;;;2.40;;
69034;SDS011;56091;55.756;37.412;2023-06-01T14:42:16;13.20;;;2.37;;
69034;SDS011;56091;55.756;37.412;2023-06-01T14:47:17;8.82;;;2.50;;
69034;SDS011;56091;55.756;37.412;2023-06-01T14:52:18;8.57;;;2.67;;
69034;SDS011;56091;55.756;37.412;2023-06-01T14:57:18;10.93;;;2.13;;
69034;SDS011;56091;55.756;37.412;2023-06-01T15:02:21;12.47;;;2.40;;
69034;SDS011;56091;55.756;37.412;2023-06-01T15:07:21;7.70;;;2.40;;
69034;SDS011;56091;55.756;37.412;2023-06-01T15:12:22;10.02;;;2.20;;
69034;SDS011;56091;55.756;37.412;2023-06-01T15:17:23;6.80;;;2.20;;
69034;SDS011;56091;55.756;37.412;2023-06-01T15:22:24;9.35;;;2.10;;
69034;SDS011;56091;55.756;37.412;2023-06-01T15:27:25;7.80;;;2.20;;
69034;SDS011;56091;55.756;37.412;2023-06-01T15:32:25;6.55;;;1.90;;
69034;SDS011;56091;55.756;37.412;2023-06-01T15:37:26;10.23;;;1.97;;
69034;SDS011;56091;55.756;37.412;2023-06-01T15:42:27;11.03;;;2.10;;
69034;SDS011;56091;55.756;37.412;2023-06-01T15:47:28;8.73;;;2.25;;
69034;SDS011;56091;55.756;37.412;2023-06-01T15:52:29;7.23;;;2.30;;
69034;SDS011;56091;55.756;37.412;2023-06-01T15:57:30;5.78;;;2.28;;
69034;SDS011;56091;55.756;37.412;2023-06-01T16:02:31;8.47;;;2.47;;
69034;SDS011;56091;55.756;37.412;2023-06-01T16:07:32;9.60;;;2.20;;
69034;SDS011;56091;55.756;37.412;2023-06-01T16:12:35;8.00;;;2.00;;
69034;SDS011;56091;55.756;37.412;2023-06-01T16:17:36;9.87;;;2.17;;
69034;SDS011;56091;55.756;37.412;2023-06-01T16:22:36;10.77;;;2.23;;
69034;SDS011;56091;55.756;37.412;2023-06-01T16:27:37;9.20;;;2.30;;
69034;SDS011;56091;55.756;37.412;2023-06-01T16:32:38;13.45;;;3.13;;
69034;SDS011;56091;55.756;37.412;2023-06-01T16:37:39;8.70;;;2.50;;
69034;SDS011;56091;55.756;37.412;2023-06-01T16:42:40;9.50;;;2.30;;
69034;SDS011;56091;55.756;37.412;2023-06-01T16:47:40;13.17;;;2.10;;
69034;SDS011;56091;55.756;37.412;2023-06-01T16:52:41;14.53;;;3.07;;
69034;SDS011;56091;55.756;37.412;2023-06-01T16:57:42;11.57;;;2.47;;
69034;SDS011;56091;55.756;37.412;2023-06-01T17:02:43;6.77;;;2.10;;
69034;SDS011;56091;55.756;37.412;2023-06-01T17:07:44;8.27;;;2.40;;
69034;SDS011;56091;55.756;37.412;2023-06-01T17:12:45;8.10;;;2.23;;
69034;SDS011;56091;55.756;37.412;2023-06-01T17:17:46;10.85;;;2.10;;
69034;SDS011;56091;55.756;37.412;2023-06-01T17:22:46;7.63;;;2.20;;
69034;SDS011;56091;55.756;37.412;2023-06-01T17:27:47;7.20;;;2.40;;
69034;SDS011;56091;55.756;37.412;2023-06-01T17:32:51;8.10;;;2.23;;
69034;SDS011;56091;55.756;37.412;2023-06-01T17:37:53;10.35;;;2.80;;
69034;SDS011;56091;55.756;37.412;2023-06-01T17:42:54;10.23;;;2.43;;
69034;SDS011;56091;55.756;37.412;2023-06-01T17:47:55;9.18;;;2.40;;
69034;SDS011;56091;55.756;37.412;2023-06-01T17:52:55;11.57;;;3.03;;
69034;SDS011;56091;55.756;37.412;2023-06-01T17:57:56;9.47;;;2.10;;
69034;SDS011;56091;55.756;37.412;2023-06-01T18:03:00;9.37;;;2.57;;
69034;SDS011;56091;55.756;37.412;2023-06-01T18:08:06;15.95;;;3.78;;
69034;SDS011;56091;55.756;37.412;2023-06-01T18:13:07;7.53;;;2.90;;
69034;SDS011;56091;55.756;37.412;2023-06-01T18:18:08;10.77;;;2.60;;
69034;SDS011;56091;55.756;37.412;2023-06-01T18:23:09;15.73;;;3.30;;
69034;SDS011;56091;55.756;37.412;2023-06-01T18:28:10;13.77;;;3.33;;
69034;SDS011;56091;55.756;37.412;2023-06-01T18:33:13;10.88;;;3.08;;
69034;SDS011;56091;55.756;37.412;2023-06-01T18:38:14;8.27;;;2.80;;
69034;SDS011;56091;55.756;37.412;2023-06-01T18:43:15;12.88;;;3.30;;
69034;SDS011;56091;55.756;37.412;2023-06-01T18:48:20;12.07;;;3.40;;
69034;SDS011;56091;55.756;37.412;2023-06-01T18:53:25;10.38;;;3.20;;
69034;SDS011;56091;55.756;37.412;2023-06-01T18:58:25;9.90;;;2.87;;
69034;SDS011;56091;55.756;37.412;2023-06-01T19:03:27;11.00;;;2.55;;
69034;SDS011;56091;55.756;37.412;2023-06-01T19:08:29;13.23;;;3.07;;
69034;SDS011;56091;55.756;37.412;2023-06-01T19:13:42;8.10;;;2.75;;
69034;SDS011;56091;55.756;37.412;2023-06-01T19:18:49;10.67;;;2.70;;
69034;SDS011;56091;55.756;37.412;2023-06-01T19:23:55;11.70;;;2.83;;
69034;SDS011;56091;55.756;37.412;2023-06-01T19:29:04;13.63;;;3.73;;
69034;SDS011;56091;55.756;37.412;2023-06-01T19:34:07;12.02;;;2.97;;
69034;SDS011;56091;55.756;37.412;2023-06-01T19:44:15;11.75;;;2.50;;
69034;SDS011;56091;55.756;37.412;2023-06-01T19:49:21;17.27;;;3.13;;
69034;SDS011;56091;55.756;37.412;2023-06-01T19:54:24;10.85;;;2.70;;
69034;SDS011;56091;55.756;37.412;2023-06-01T19:59:26;8.80;;;2.67;;
69034;SDS011;56091;55.756;37.412;2023-06-01T20:04:30;8.45;;;2.78;;
69034;SDS011;56091;55.756;37.412;2023-06-01T20:09:37;6.73;;;2.40;;
69034;SDS011;56091;55.756;37.412;2023-06-01T20:14:38;8.83;;;2.70;;
69034;SDS011;56091;55.756;37.412;2023-06-01T20:19:39;10.93;;;3.33;;
69034;SDS011;56091;55.756;37.412;2023-06-01T20:24:40;9.35;;;2.88;;
69034;SDS011;56091;55.756;37.412;2023-06-01T20:29:43;8.93;;;2.60;;
69034;SDS011;56091;55.756;37.412;2023-06-01T20:34:44;9.30;;;2.55;;
69034;SDS011;56091;55.756;37.412;2023-06-01T20:39:45;9.27;;;2.60;;
69034;SDS011;56091;55.756;37.412;2023-06-01T20:44:49;9.35;;;2.60;;
69034;SDS011;56091;55.756;37.412;2023-06-01T20:49:50;12.30;;;2.70;;
69034;SDS011;56091;55.756;37.412;2023-06-01T20:54:50;9.03;;;2.63;;
69034;SDS011;56091;55.756;37.412;2023-06-01T20:59:57;10.40;;;2.75;;
69034;SDS011;56091;55.756;37.412;2023-06-01T21:04:58;9.13;;;2.80;;
69034;SDS011;56091;55.756;37.412;2023-06-01T21:09:58;11.48;;;2.95;;
69034;SDS011;56091;55.756;37.412;2023-06-01T21:15:00;11.40;;;2.60;;
69034;SDS011;56091;55.756;37.412;2023-06-01T21:20:00;9.52;;;3.00;;
69034;SDS011;56091;55.756;37.412;2023-06-01T21:25:01;7.40;;;2.70;;
69034;SDS011;56091;55.756;37.412;2023-06-01T21:30:04;10.70;;;3.75;;
69034;SDS011;56091;55.756;37.412;2023-06-01T21:35:05;9.57;;;2.80;;
69034;SDS011;56091;55.756;37.412;2023-06-01T21:40:07;9.13;;;3.08;;
69034;SDS011;56091;55.756;37.412;2023-06-01T21:45:08;8.07;;;2.80;;
69034;SDS011;56091;55.756;37.412;2023-06-01T21:50:10;9.90;;;3.20;;
69034;SDS011;56091;55.756;37.412;2023-06-01T21:55:11;10.73;;;3.00;;
69034;SDS011;56091;55.756;37.412;2023-06-01T22:00:14;12.45;;;3.50;;
69034;SDS011;56091;55.756;37.412;2023-06-01T22:05:16;11.17;;;3.53;;
69034;SDS011;56091;55.756;37.412;2023-06-01T22:10:16;7.70;;;3.08;;
69034;SDS011;56091;55.756;37.412;2023-06-01T22:15:18;10.63;;;3.40;;
69034;SDS011;56091;55.756;37.412;2023-06-01T22:20:18;7.55;;;3.03;;
69034;SDS011;56091;55.756;37.412;2023-06-01T22:25:20;9.47;;;3.27;;
69034;SDS011;56091;55.756;37.412;2023-06-01T22:30:22;12.15;;;3.35;;
69034;SDS011;56091;55.756;37.412;2023-06-01T22:35:22;11.93;;;2.90;;
69034;SDS011;56091;55.756;37.412;2023-06-01T22:40:23;9.57;;;2.80;;
69034;SDS011;56091;55.756;37.412;2023-06-01T22:45:24;8.67;;;3.33;;
69034;SDS011;56091;55.756;37.412;2023-06-01T22:50:27;13.40;;;3.53;;
69034;SDS011;56091;55.756;37.412;2023-06-01T22:55:28;12.80;;;3.00;;
69034;SDS011;56091;55.756;37.412;2023-06-01T23:00:29;8.20;;;3.03;;
69034;SDS011;56091;55.756;37.412;2023-06-01T23:05:30;12.77;;;3.30;;
69034;SDS011;56091;55.756;37.412;2023-06-01T23:10:35;9.93;;;3.03;;
69034;SDS011;56091;55.756;37.412;2023-06-01T23:15:37;8.30;;;3.53;;
69034;SDS011;56091;55.756;37.412;2023-06-01T23:20:38;14.53;;;3.90;;
69034;SDS011;56091;55.756;37.412;2023-06-01T23:25:39;11.93;;;3.75;;
69034;SDS011;56091;55.756;37.412;2023-06-01T23:30:44;9.50;;;3.50;;
69034;SDS011;56091;55.756;37.412;2023-06-01T23:35:45;8.80;;;3.33;;
69034;SDS011;56091;55.756;37.412;2023-06-01T23:40:46;10.43;;;3.50;;
69034;SDS011;56091;55.756;37.412;2023-06-01T23:45:47;9.65;;;3.60;;
69034;SDS011;56091;55.756;37.412;2023-06-01T23:50:48;10.03;;;3.37;;
69034;SDS011;56091;55.756;37.412;2023-06-01T23:55:48;8.25;;;3.30;;
